sensor_id;sensor_type;location;lat;lon;timestamp;P1;durP1;ratioP1;P2;durP2;ratioP2
85065;SDS011;75401;52.588;13.224;2024-01-15T00:02:06;0.55;;;0.40;;
85065;SDS011;75401;52.588;13.224;2024-01-15T00:04:31;0.63;;;0.40;;
85065;SDS011;75401;52.588;13.224;2024-01-15T00:07:00;0.60;;;0.35;;
85065;SDS011;75401;52.588;13.224;2024-01-15T00:09:26;0.40;;;0.30;;
85065;SDS011;75401;52.588;13.224;2024-01-15T00:11:51;0.43;;;0.30;;
85065;SDS011;75401;52.588;13.224;2024-01-15T00:14:18;0.73;;;0.40;;
85065;SDS011;75401;52.588;13.224;2024-01-15T00:16:43;0.45;;;0.40;;
85065;SDS011;75401;52.588;13.224;2024-01-15T00:19:08;0.87;;;0.50;;
85065;SDS011;75401;52.588;13.224;2024-01-15T00:21:34;0.60;;;0.40;;
85065;SDS011;75401;52.588;13.224;2024-01-15T00:23:59;0.50;;;0.40;;
85065;SDS011;75401;52.588;13.224;2024-01-15T00:26:24;0.67;;;0.40;;
85065;SDS011;75401;52.588;13.224;2024-01-15T00:28:50;0.70;;;0.40;;
85065;SDS011;75401;52.588;13.224;2024-01-15T00:31:17;0.70;;;0.40;;
85065;SDS011;75401;52.588;13.224;2024-01-15T00:33:42;0.55;;;0.40;;
85065;SDS011;75401;52.588;13.224;2024-01-15T00:36:07;0.47;;;0.33;;
85065;SDS011;75401;52.588;13.224;2024-01-15T00:38:33;0.52;;;0.30;;
85065;SDS011;75401;52.588;13.224;2024-01-15T00:40:58;0.43;;;0.40;;
85065;SDS011;75401;52.588;13.224;2024-01-15T00:43:23;0.30;;;0.30;;
85065;SDS011;75401;52.588;13.224;2024-01-15T00:45:49;0.63;;;0.40;;
85065;SDS011;75401;52.588;13.224;2024-01-15T00:48:15;0.70;;;0.40;;
85065;SDS011;75401;52.588;13.224;2024-01-15T00:50:41;0.73;;;0.38;;
85065;SDS011;75401;52.588;13.224;2024-01-15T00:53:06;0.50;;;0.40;;
85065;SDS011;75401;52.588;13.224;2024-01-15T00:55:31;0.52;;;0.40;;
85065;SDS011;75401;52.588;13.224;2024-01-15T00:57:57;0.43;;;0.30;;
85065;SDS011;75401;52.588;13.224;2024-01-15T01:00:22;0.40;;;0.23;;
85065;SDS011;75401;52.588;13.224;2024-01-15T01:02:48;0.60;;;0.40;;
85065;SDS011;75401;52.588;13.224;2024-01-15T01:05:14;0.40;;;0.30;;
85065;SDS011;75401;52.588;13.224;2024-01-15T01:07:39;0.50;;;0.28;;
85065;SDS011;75401;52.588;13.224;2024-01-15T01:10:05;0.50;;;0.30;;
85065;SDS011;75401;52.588;13.224;2024-01-15T01:12:31;0.50;;;0.35;;
85065;SDS011;75401;52.588;13.224;2024-01-15T01:14:56;0.30;;;0.27;;
85065;SDS011;75401;52.588;13.224;2024-01-15T01:17:22;0.53;;;0.30;;
85065;SDS011;75401;52.588;13.224;2024-01-15T01:19:47;0.40;;;0.40;;
85065;SDS011;75401;52.588;13.224;2024-01-15T01:22:13;0.50;;;0.30;;
85065;SDS011;75401;52.588;13.224;2024-01-15T01:24:39;0.30;;;0.30;;
85065;SDS011;75401;52.588;13.224;2024-01-15T01:27:04;0.50;;;0.40;;
85065;SDS011;75401;52.588;13.224;2024-01-15T01:29:29;0.40;;;0.30;;
85065;SDS011;75401;52.588;13.224;2024-01-15T01:31:55;0.40;;;0.30;;
85065;SDS011;75401;52.588;13.224;2024-01-15T01:34:20;0.30;;;0.30;;
85065;SDS011;75401;52.588;13.224;2024-01-15T01:36:45;0.40;;;0.20;;
85065;SDS011;75401;52.588;13.224;2024-01-15T01:39:12;0.50;;;0.30;;
85065;SDS011;75401;52.588;13.224;2024-01-15T01:41:37;0.30;;;0.30;;
85065;SDS011;75401;52.588;13.224;2024-01-15T01:44:03;0.47;;;0.38;;
85065;SDS011;75401;52.588;13.224;2024-01-15T01:46:28;0.20;;;0.20;;
85065;SDS011;75401;52.588;13.224;2024-01-15T01:48:54;0.63;;;0.30;;
85065;SDS011;75401;52.588;13.224;2024-01-15T01:51:21;0.40;;;0.30;;
85065;SDS011;75401;52.588;13.224;2024-01-15T01:53:47;0.20;;;0.20;;
85065;SDS011;75401;52.588;13.224;2024-01-15T01:56:15;0.57;;;0.35;;
85065;SDS011;75401;52.588;13.224;2024-01-15T01:58:40;0.30;;;0.30;;
85065;SDS011;75401;52.588;13.224;2024-01-15T02:01:06;0.40;;;0.30;;
85065;SDS011;75401;52.588;13.224;2024-01-15T02:03:32;0.60;;;0.35;;
85065;SDS011;75401;52.588;13.224;2024-01-15T02:05:58;0.57;;;0.38;;
85065;SDS011;75401;52.588;13.224;2024-01-15T02:08:25;0.45;;;0.28;;
85065;SDS011;75401;52.588;13.224;2024-01-15T02:10:51;0.30;;;0.20;;
85065;SDS011;75401;52.588;13.224;2024-01-15T02:13:18;0.37;;;0.30;;
85065;SDS011;75401;52.588;13.224;2024-01-15T02:15:45;0.30;;;0.30;;
85065;SDS011;75401;52.588;13.224;2024-01-15T02:18:10;0.60;;;0.37;;
85065;SDS011;75401;52.588;13.224;2024-01-15T02:20:36;0.40;;;0.40;;
85065;SDS011;75401;52.588;13.224;2024-01-15T02:23:07;0.22;;;0.20;;
85065;SDS011;75401;52.588;13.224;2024-01-15T02:25:34;0.45;;;0.30;;
85065;SDS011;75401;52.588;13.224;2024-01-15T02:28:00;0.40;;;0.30;;
85065;SDS011;75401;52.588;13.224;2024-01-15T02:30:26;0.47;;;0.20;;
85065;SDS011;75401;52.588;13.224;2024-01-15T02:32:53;0.40;;;0.20;;
85065;SDS011;75401;52.588;13.224;2024-01-15T02:35:18;0.40;;;0.20;;
85065;SDS011;75401;52.588;13.224;2024-01-15T02:37:44;0.20;;;0.20;;
85065;SDS011;75401;52.588;13.224;2024-01-15T02:40:11;0.53;;;0.30;;
85065;SDS011;75401;52.588;13.224;2024-01-15T02:42:36;0.57;;;0.20;;
85065;SDS011;75401;52.588;13.224;2024-01-15T02:45:02;0.50;;;0.30;;
85065;SDS011;75401;52.588;13.224;2024-01-15T02:47:28;0.55;;;0.20;;
85065;SDS011;75401;52.588;13.224;2024-01-15T02:49:53;0.40;;;0.23;;
85065;SDS011;75401;52.588;13.224;2024-01-15T02:52:18;0.37;;;0.20;;
85065;SDS011;75401;52.588;13.224;2024-01-15T02:54:44;0.57;;;0.30;;
85065;SDS011;75401;52.588;13.224;2024-01-15T02:57:11;0.63;;;0.20;;
85065;SDS011;75401;52.588;13.224;2024-01-15T02:59:36;0.47;;;0.30;;
85065;SDS011;75401;52.588;13.224;2024-01-15T03:02:02;0.20;;;0.20;;
85065;SDS011;75401;52.588;13.224;2024-01-15T03:04:27;0.30;;;0.20;;
85065;SDS011;75401;52.588;13.224;2024-01-15T03:06:52;0.40;;;0.23;;
85065;SDS011;75401;52.588;13.224;2024-01-15T03:09:18;0.43;;;0.20;;
85065;SDS011;75401;52.588;13.224;2024-01-15T03:11:44;0.17;;;0.17;;
85065;SDS011;75401;52.588;13.224;2024-01-15T03:14:10;0.30;;;0.20;;
85065;SDS011;75401;52.588;13.224;2024-01-15T03:16:36;0.17;;;0.10;;
85065;SDS011;75401;52.588;13.224;2024-01-15T03:19:01;0.55;;;0.22;;
85065;SDS011;75401;52.588;13.224;2024-01-15T03:21:26;0.40;;;0.30;;
85065;SDS011;75401;52.588;13.224;2024-01-15T03:23:52;0.30;;;0.13;;
85065;SDS011;75401;52.588;13.224;2024-01-15T03:26:17;0.57;;;0.33;;
85065;SDS011;75401;52.588;13.224;2024-01-15T03:28:42;0.20;;;0.20;;
85065;SDS011;75401;52.588;13.224;2024-01-15T03:31:09;0.40;;;0.20;;
85065;SDS011;75401;52.588;13.224;2024-01-15T03:33:34;0.40;;;0.20;;
85065;SDS011;75401;52.588;13.224;2024-01-15T03:36:00;0.30;;;0.20;;
85065;SDS011;75401;52.588;13.224;2024-01-15T03:38:27;0.43;;;0.27;;
85065;SDS011;75401;52.588;13.224;2024-01-15T03:40:53;0.55;;;0.30;;
85065;SDS011;75401;52.588;13.224;2024-01-15T03:43:18;0.15;;;0.10;;
85065;SDS011;75401;52.588;13.224;2024-01-15T03:45:44;0.47;;;0.30;;
85065;SDS011;75401;52.588;13.224;2024-01-15T03:48:10;0.80;;;0.30;;
85065;SDS011;75401;52.588;13.224;2024-01-15T03:50:36;0.30;;;0.20;;
85065;SDS011;75401;52.588;13.224;2024-01-15T03:53:01;0.53;;;0.30;;
85065;SDS011;75401;52.588;13.224;2024-01-15T03:55:27;0.60;;;0.30;;
85065;SDS011;75401;52.588;13.224;2024-01-15T03:57:52;0.50;;;0.30;;
85065;SDS011;75401;52.588;13.224;2024-01-15T04:00:18;0.40;;;0.20;;
85065;SDS011;75401;52.588;13.224;2024-01-15T04:02:43;0.20;;;0.20;;
85065;SDS011;75401;52.588;13.224;2024-01-15T04:05:10;0.20;;;0.20;;
85065;SDS011;75401;52.588;13.224;2024-01-15T04:07:35;0.50;;;0.20;;
85065;SDS011;75401;52.588;13.224;2024-01-15T04:10:01;0.40;;;0.20;;
85065;SDS011;75401;52.588;13.224;2024-01-15T04:12:26;0.37;;;0.27;;
85065;SDS011;75401;52.588;13.224;2024-01-15T04:14:51;0.60;;;0.30;;
85065;SDS011;75401;52.588;13.224;2024-01-15T04:17:18;0.95;;;0.40;;
85065;SDS011;75401;52.588;13.224;2024-01-15T04:19:44;0.20;;;0.20;;
85065;SDS011;75401;52.588;13.224;2024-01-15T04:22:10;0.77;;;0.20;;
85065;SDS011;75401;52.588;13.224;2024-01-15T04:24:35;0.55;;;0.25;;
85065;SDS011;75401;52.588;13.224;2024-01-15T04:27:01;0.27;;;0.13;;
85065;SDS011;75401;52.588;13.224;2024-01-15T04:29:26;0.60;;;0.30;;
85065;SDS011;75401;52.588;13.224;2024-01-15T04:31:52;0.38;;;0.22;;
85065;SDS011;75401;52.588;13.224;2024-01-15T04:34:18;0.30;;;0.10;;
85065;SDS011;75401;52.588;13.224;2024-01-15T04:36:43;0.40;;;0.20;;
85065;SDS011;75401;52.588;13.224;2024-01-15T04:39:10;0.30;;;0.20;;
85065;SDS011;75401;52.588;13.224;2024-01-15T04:41:35;0.43;;;0.22;;
85065;SDS011;75401;52.588;13.224;2024-01-15T04:44:01;0.40;;;0.30;;
85065;SDS011;75401;52.588;13.224;2024-01-15T04:46:26;0.57;;;0.28;;
85065;SDS011;75401;52.588;13.224;2024-01-15T04:48:52;0.30;;;0.20;;
85065;SDS011;75401;52.588;13.224;2024-01-15T04:51:17;0.13;;;0.10;;
85065;SDS011;75401;52.588;13.224;2024-01-15T04:53:44;0.30;;;0.20;;
85065;SDS011;75401;52.588;13.224;2024-01-15T04:56:10;0.10;;;0.10;;
85065;SDS011;75401;52.588;13.224;2024-01-15T04:58:36;0.30;;;0.20;;
85065;SDS011;75401;52.588;13.224;2024-01-15T05:01:01;0.40;;;0.10;;
85065;SDS011;75401;52.588;13.224;2024-01-15T05:03:26;0.53;;;0.10;;
85065;SDS011;75401;52.588;13.224;2024-01-15T05:05:52;0.23;;;0.10;;
85065;SDS011;75401;52.588;13.224;2024-01-15T05:08:17;0.20;;;0.20;;
85065;SDS011;75401;52.588;13.224;2024-01-15T05:10:42;0.20;;;0.10;;
85065;SDS011;75401;52.588;13.224;2024-01-15T05:13:09;0.33;;;0.10;;
85065;SDS011;75401;52.588;13.224;2024-01-15T05:15:34;0.20;;;0.10;;
85065;SDS011;75401;52.588;13.224;2024-01-15T05:17:59;0.57;;;0.20;;
85065;SDS011;75401;52.588;13.224;2024-01-15T05:20:25;0.50;;;0.20;;
85065;SDS011;75401;52.588;13.224;2024-01-15T05:22:50;0.10;;;0.10;;
85065;SDS011;75401;52.588;13.224;2024-01-15T05:25:15;0.33;;;0.10;;
85065;SDS011;75401;52.588;13.224;2024-01-15T05:27:41;0.33;;;0.20;;
85065;SDS011;75401;52.588;13.224;2024-01-15T05:30:08;0.10;;;0.10;;
85065;SDS011;75401;52.588;13.224;2024-01-15T05:32:34;0.40;;;0.20;;
85065;SDS011;75401;52.588;13.224;2024-01-15T05:34:59;0.70;;;0.20;;
85065;SDS011;75401;52.588;13.224;2024-01-15T05:37:24;0.63;;;0.20;;
85065;SDS011;75401;52.588;13.224;2024-01-15T05:39:49;0.40;;;0.10;;
85065;SDS011;75401;52.588;13.224;2024-01-15T05:42:15;0.43;;;0.20;;
85065;SDS011;75401;52.588;13.224;2024-01-15T05:44:40;0.27;;;0.13;;
85065;SDS011;75401;52.588;13.224;2024-01-15T05:47:07;0.70;;;0.10;;
85065;SDS011;75401;52.588;13.224;2024-01-15T05:49:32;0.10;;;0.00;;
85065;SDS011;75401;52.588;13.224;2024-01-15T05:51:58;0.07;;;0.00;;
85065;SDS011;75401;52.588;13.224;2024-01-15T05:54:23;0.20;;;0.10;;
85065;SDS011;75401;52.588;13.224;2024-01-15T05:56:48;0.23;;;0.10;;
85065;SDS011;75401;52.588;13.224;2024-01-15T05:59:13;0.30;;;0.20;;
85065;SDS011;75401;52.588;13.224;2024-01-15T06:01:39;0.63;;;0.20;;
85065;SDS011;75401;52.588;13.224;2024-01-15T06:04:05;0.20;;;0.10;;
85065;SDS011;75401;52.588;13.224;2024-01-15T06:06:31;0.20;;;0.10;;
85065;SDS011;75401;52.588;13.224;2024-01-15T06:08:56;0.10;;;0.00;;
85065;SDS011;75401;52.588;13.224;2024-01-15T06:11:21;0.50;;;0.13;;
85065;SDS011;75401;52.588;13.224;2024-01-15T06:13:47;0.40;;;0.13;;
85065;SDS011;75401;52.588;13.224;2024-01-15T06:16:13;0.30;;;0.10;;
85065;SDS011;75401;52.588;13.224;2024-01-15T06:18:39;0.28;;;0.10;;
85065;SDS011;75401;52.588;13.224;2024-01-15T06:21:06;0.50;;;0.20;;
85065;SDS011;75401;52.588;13.224;2024-01-15T06:23:31;0.40;;;0.10;;
85065;SDS011;75401;52.588;13.224;2024-01-15T06:25:56;0.10;;;0.10;;
85065;SDS011;75401;52.588;13.224;2024-01-15T06:28:21;0.57;;;0.20;;
85065;SDS011;75401;52.588;13.224;2024-01-15T06:30:47;0.10;;;0.00;;
85065;SDS011;75401;52.588;13.224;2024-01-15T06:33:12;0.25;;;0.10;;
85065;SDS011;75401;52.588;13.224;2024-01-15T06:35:38;0.43;;;0.20;;
85065;SDS011;75401;52.588;13.224;2024-01-15T06:38:04;0.17;;;0.00;;
85065;SDS011;75401;52.588;13.224;2024-01-15T06:40:30;0.75;;;0.20;;
85065;SDS011;75401;52.588;13.224;2024-01-15T06:42:55;0.20;;;0.20;;
85065;SDS011;75401;52.588;13.224;2024-01-15T06:45:20;0.20;;;0.10;;
85065;SDS011;75401;52.588;13.224;2024-01-15T06:47:46;0.40;;;0.20;;
85065;SDS011;75401;52.588;13.224;2024-01-15T06:50:11;0.30;;;0.10;;
85065;SDS011;75401;52.588;13.224;2024-01-15T06:52:36;0.57;;;0.20;;
85065;SDS011;75401;52.588;13.224;2024-01-15T06:55:03;0.23;;;0.10;;
85065;SDS011;75401;52.588;13.224;2024-01-15T06:57:29;0.20;;;0.10;;
85065;SDS011;75401;52.588;13.224;2024-01-15T06:59:54;0.47;;;0.20;;
85065;SDS011;75401;52.588;13.224;2024-01-15T07:02:20;0.45;;;0.20;;
85065;SDS011;75401;52.588;13.224;2024-01-15T07:04:45;0.33;;;0.20;;
85065;SDS011;75401;52.588;13.224;2024-01-15T07:07:11;0.20;;;0.10;;
85065;SDS011;75401;52.588;13.224;2024-01-15T07:09:36;0.10;;;0.10;;
85065;SDS011;75401;52.588;13.224;2024-01-15T07:12:03;0.30;;;0.17;;
85065;SDS011;75401;52.588;13.224;2024-01-15T07:14:28;0.52;;;0.20;;
85065;SDS011;75401;52.588;13.224;2024-01-15T07:16:54;0.50;;;0.20;;
85065;SDS011;75401;52.588;13.224;2024-01-15T07:19:19;0.20;;;0.10;;
85065;SDS011;75401;52.588;13.224;2024-01-15T07:21:44;0.20;;;0.10;;
85065;SDS011;75401;52.588;13.224;2024-01-15T07:24:09;0.60;;;0.30;;
85065;SDS011;75401;52.588;13.224;2024-01-15T07:26:35;0.57;;;0.20;;
85065;SDS011;75401;52.588;13.224;2024-01-15T07:29:01;0.20;;;0.10;;
85065;SDS011;75401;52.588;13.224;2024-01-15T07:31:27;1.10;;;0.10;;
85065;SDS011;75401;52.588;13.224;2024-01-15T07:33:52;0.27;;;0.10;;
85065;SDS011;75401;52.588;13.224;2024-01-15T07:36:17;0.60;;;0.23;;
85065;SDS011;75401;52.588;13.224;2024-01-15T07:38:43;0.20;;;0.03;;
85065;SDS011;75401;52.588;13.224;2024-01-15T07:41:08;0.60;;;0.23;;
85065;SDS011;75401;52.588;13.224;2024-01-15T07:43:33;0.40;;;0.20;;
85065;SDS011;75401;52.588;13.224;2024-01-15T07:46:00;0.30;;;0.23;;
85065;SDS011;75401;52.588;13.224;2024-01-15T07:48:25;0.50;;;0.20;;
85065;SDS011;75401;52.588;13.224;2024-01-15T07:50:52;0.55;;;0.30;;
85065;SDS011;75401;52.588;13.224;2024-01-15T07:53:17;0.47;;;0.20;;
85065;SDS011;75401;52.588;13.224;2024-01-15T07:55:42;0.73;;;0.27;;
85065;SDS011;75401;52.588;13.224;2024-01-15T07:58:07;1.53;;;0.30;;
85065;SDS011;75401;52.588;13.224;2024-01-15T08:00:33;0.37;;;0.10;;
85065;SDS011;75401;52.588;13.224;2024-01-15T08:02:59;0.50;;;0.20;;
85065;SDS011;75401;52.588;13.224;2024-01-15T08:05:25;0.13;;;0.10;;
85065;SDS011;75401;52.588;13.224;2024-01-15T08:07:50;0.67;;;0.30;;
85065;SDS011;75401;52.588;13.224;2024-01-15T08:10:16;0.30;;;0.20;;
85065;SDS011;75401;52.588;13.224;2024-01-15T08:12:41;0.22;;;0.10;;
85065;SDS011;75401;52.588;13.224;2024-01-15T08:15:06;0.33;;;0.10;;
85065;SDS011;75401;52.588;13.224;2024-01-15T08:17:32;1.02;;;0.32;;
85065;SDS011;75401;52.588;13.224;2024-01-15T08:19:59;0.50;;;0.17;;
85065;SDS011;75401;52.588;13.224;2024-01-15T08:22:24;0.80;;;0.30;;
85065;SDS011;75401;52.588;13.224;2024-01-15T08:24:49;0.30;;;0.10;;
85065;SDS011;75401;52.588;13.224;2024-01-15T08:27:15;0.13;;;0.10;;
85065;SDS011;75401;52.588;13.224;2024-01-15T08:29:40;0.50;;;0.20;;
85065;SDS011;75401;52.588;13.224;2024-01-15T08:32:05;0.40;;;0.17;;
85065;SDS011;75401;52.588;13.224;2024-01-15T08:34:31;0.50;;;0.20;;
85065;SDS011;75401;52.588;13.224;2024-01-15T08:36:57;0.17;;;0.07;;
85065;SDS011;75401;52.588;13.224;2024-01-15T08:39:23;0.25;;;0.15;;
85065;SDS011;75401;52.588;13.224;2024-01-15T08:41:48;0.30;;;0.13;;
85065;SDS011;75401;52.588;13.224;2024-01-15T08:44:13;0.47;;;0.20;;
85065;SDS011;75401;52.588;13.224;2024-01-15T08:46:39;0.83;;;0.30;;
85065;SDS011;75401;52.588;13.224;2024-01-15T08:49:04;0.10;;;0.10;;
85065;SDS011;75401;52.588;13.224;2024-01-15T08:51:29;0.03;;;0.03;;
85065;SDS011;75401;52.588;13.224;2024-01-15T08:53:56;0.27;;;0.20;;
85065;SDS011;75401;52.588;13.224;2024-01-15T08:56:21;0.60;;;0.20;;
85065;SDS011;75401;52.588;13.224;2024-01-15T08:58:47;0.40;;;0.10;;
85065;SDS011;75401;52.588;13.224;2024-01-15T09:01:13;0.52;;;0.25;;
85065;SDS011;75401;52.588;13.224;2024-01-15T09:03:39;0.47;;;0.20;;
85065;SDS011;75401;52.588;13.224;2024-01-15T09:06:04;0.60;;;0.20;;
85065;SDS011;75401;52.588;13.224;2024-01-15T09:08:30;0.40;;;0.20;;
85065;SDS011;75401;52.588;13.224;2024-01-15T09:10:56;0.17;;;0.10;;
85065;SDS011;75401;52.588;13.224;2024-01-15T09:13:22;0.03;;;0.00;;
85065;SDS011;75401;52.588;13.224;2024-01-15T09:15:47;0.63;;;0.23;;
85065;SDS011;75401;52.588;13.224;2024-01-15T09:18:12;0.37;;;0.10;;
85065;SDS011;75401;52.588;13.224;2024-01-15T09:20:38;0.60;;;0.20;;
85065;SDS011;75401;52.588;13.224;2024-01-15T09:23:03;0.10;;;0.00;;
85065;SDS011;75401;52.588;13.224;2024-01-15T09:25:28;0.50;;;0.20;;
85065;SDS011;75401;52.588;13.224;2024-01-15T09:27:56;0.40;;;0.20;;
85065;SDS011;75401;52.588;13.224;2024-01-15T09:30:22;0.28;;;0.13;;
85065;SDS011;75401;52.588;13.224;2024-01-15T09:32:47;0.50;;;0.20;;
85065;SDS011;75401;52.588;13.224;2024-01-15T09:35:12;0.43;;;0.20;;
85065;SDS011;75401;52.588;13.224;2024-01-15T09:37:38;0.70;;;0.30;;
85065;SDS011;75401;52.588;13.224;2024-01-15T09:40:05;0.00;;;0.00;;
85065;SDS011;75401;52.588;13.224;2024-01-15T09:42:33;0.20;;;0.10;;
85065;SDS011;75401;52.588;13.224;2024-01-15T09:45:01;0.20;;;0.10;;
85065;SDS011;75401;52.588;13.224;2024-01-15T09:47:27;0.35;;;0.10;;
85065;SDS011;75401;52.588;13.224;2024-01-15T09:49:52;0.10;;;0.10;;
85065;SDS011;75401;52.588;13.224;2024-01-15T09:52:17;0.20;;;0.10;;
85065;SDS011;75401;52.588;13.224;2024-01-15T09:54:44;0.30;;;0.10;;
85065;SDS011;75401;52.588;13.224;2024-01-15T09:57:10;0.35;;;0.17;;
85065;SDS011;75401;52.588;13.224;2024-01-15T09:59:36;0.30;;;0.20;;
85065;SDS011;75401;52.588;13.224;2024-01-15T10:02:04;0.10;;;0.00;;
85065;SDS011;75401;52.588;13.224;2024-01-15T10:04:31;0.40;;;0.10;;
85065;SDS011;75401;52.588;13.224;2024-01-15T10:06:56;0.00;;;0.00;;
85065;SDS011;75401;52.588;13.224;2024-01-15T10:09:25;0.20;;;0.10;;
85065;SDS011;75401;52.588;13.224;2024-01-15T10:11:50;0.27;;;0.10;;
85065;SDS011;75401;52.588;13.224;2024-01-15T10:14:16;0.13;;;0.10;;
85065;SDS011;75401;52.588;13.224;2024-01-15T10:16:41;0.10;;;0.10;;
85065;SDS011;75401;52.588;13.224;2024-01-15T10:19:08;0.52;;;0.10;;
85065;SDS011;75401;52.588;13.224;2024-01-15T10:21:34;0.03;;;0.03;;
85065;SDS011;75401;52.588;13.224;2024-01-15T10:23:59;0.47;;;0.10;;
85065;SDS011;75401;52.588;13.224;2024-01-15T10:26:25;0.20;;;0.10;;
85065;SDS011;75401;52.588;13.224;2024-01-15T10:28:51;0.40;;;0.30;;
85065;SDS011;75401;52.588;13.224;2024-01-15T10:31:16;0.30;;;0.10;;
85065;SDS011;75401;52.588;13.224;2024-01-15T10:33:42;0.35;;;0.10;;
85065;SDS011;75401;52.588;13.224;2024-01-15T10:36:09;0.10;;;0.10;;
85065;SDS011;75401;52.588;13.224;2024-01-15T10:38:34;0.00;;;0.00;;
85065;SDS011;75401;52.588;13.224;2024-01-15T10:41:01;0.10;;;0.10;;
85065;SDS011;75401;52.588;13.224;2024-01-15T10:43:27;0.20;;;0.07;;
85065;SDS011;75401;52.588;13.224;2024-01-15T10:45:53;0.10;;;0.10;;
85065;SDS011;75401;52.588;13.224;2024-01-15T10:48:19;0.00;;;0.00;;
85065;SDS011;75401;52.588;13.224;2024-01-15T10:50:44;0.17;;;0.05;;
85065;SDS011;75401;52.588;13.224;2024-01-15T10:53:13;0.40;;;0.20;;
85065;SDS011;75401;52.588;13.224;2024-01-15T10:55:40;0.10;;;0.10;;
85065;SDS011;75401;52.588;13.224;2024-01-15T10:58:07;0.00;;;0.00;;
85065;SDS011;75401;52.588;13.224;2024-01-15T11:00:33;0.08;;;0.05;;
85065;SDS011;75401;52.588;13.224;2024-01-15T11:03:00;0.20;;;0.10;;
85065;SDS011;75401;52.588;13.224;2024-01-15T11:05:26;0.20;;;0.10;;
85065;SDS011;75401;52.588;13.224;2024-01-15T11:07:54;0.00;;;0.00;;
85065;SDS011;75401;52.588;13.224;2024-01-15T11:10:40;0.20;;;0.10;;
85065;SDS011;75401;52.588;13.224;2024-01-15T11:13:08;0.00;;;0.00;;
85065;SDS011;75401;52.588;13.224;2024-01-15T11:15:44;0.00;;;0.00;;
85065;SDS011;75401;52.588;13.224;2024-01-15T11:18:19;0.00;;;0.00;;
85065;SDS011;75401;52.588;13.224;2024-01-15T11:28:54;0.10;;;0.00;;
85065;SDS011;75401;52.588;13.224;2024-01-15T11:31:20;0.08;;;0.00;;
85065;SDS011;75401;52.588;13.224;2024-01-15T11:33:47;0.27;;;0.17;;
85065;SDS011;75401;52.588;13.224;2024-01-15T11:36:14;0.05;;;0.03;;
85065;SDS011;75401;52.588;13.224;2024-01-15T11:38:40;0.10;;;0.10;;
85065;SDS011;75401;52.588;13.224;2024-01-15T11:41:12;0.10;;;0.10;;
85065;SDS011;75401;52.588;13.224;2024-01-15T11:43:40;0.17;;;0.00;;
85065;SDS011;75401;52.588;13.224;2024-01-15T11:46:05;0.00;;;0.00;;
85065;SDS011;75401;52.588;13.224;2024-01-15T11:48:41;0.10;;;0.00;;
85065;SDS011;75401;52.588;13.224;2024-01-15T11:51:08;0.13;;;0.05;;
85065;SDS011;75401;52.588;13.224;2024-01-15T11:53:36;0.10;;;0.08;;
85065;SDS011;75401;52.588;13.224;2024-01-15T11:56:10;0.00;;;0.00;;
85065;SDS011;75401;52.588;13.224;2024-01-15T11:58:40;0.10;;;0.00;;
85065;SDS011;75401;52.588;13.224;2024-01-15T12:01:06;0.20;;;0.00;;
85065;SDS011;75401;52.588;13.224;2024-01-15T12:03:32;0.07;;;0.00;;
85065;SDS011;75401;52.588;13.224;2024-01-15T12:05:58;0.20;;;0.00;;
85065;SDS011;75401;52.588;13.224;2024-01-15T12:08:23;0.00;;;0.00;;
85065;SDS011;75401;52.588;13.224;2024-01-15T12:10:49;0.20;;;0.05;;
85065;SDS011;75401;52.588;13.224;2024-01-15T12:13:14;0.10;;;0.10;;
85065;SDS011;75401;52.588;13.224;2024-01-15T12:15:42;0.22;;;0.10;;
85065;SDS011;75401;52.588;13.224;2024-01-15T12:18:08;0.10;;;0.10;;
85065;SDS011;75401;52.588;13.224;2024-01-15T12:20:35;0.20;;;0.20;;
85065;SDS011;75401;52.588;13.224;2024-01-15T12:23:01;0.00;;;0.00;;
85065;SDS011;75401;52.588;13.224;2024-01-15T12:25:27;0.13;;;0.05;;
85065;SDS011;75401;52.588;13.224;2024-01-15T12:27:53;0.25;;;0.00;;
85065;SDS011;75401;52.588;13.224;2024-01-15T12:30:19;0.20;;;0.10;;
85065;SDS011;75401;52.588;13.224;2024-01-15T12:32:46;0.00;;;0.00;;
85065;SDS011;75401;52.588;13.224;2024-01-15T12:35:11;0.10;;;0.00;;
85065;SDS011;75401;52.588;13.224;2024-01-15T12:37:36;0.00;;;0.00;;
85065;SDS011;75401;52.588;13.224;2024-01-15T12:40:02;0.00;;;0.00;;
85065;SDS011;75401;52.588;13.224;2024-01-15T12:42:28;0.10;;;0.00;;
85065;SDS011;75401;52.588;13.224;2024-01-15T12:44:54;0.30;;;0.10;;
85065;SDS011;75401;52.588;13.224;2024-01-15T12:47:20;0.03;;;0.00;;
85065;SDS011;75401;52.588;13.224;2024-01-15T12:49:47;0.00;;;0.00;;
85065;SDS011;75401;52.588;13.224;2024-01-15T12:52:13;0.10;;;0.00;;
85065;SDS011;75401;52.588;13.224;2024-01-15T12:54:38;0.03;;;0.00;;
85065;SDS011;75401;52.588;13.224;2024-01-15T12:57:03;0.00;;;0.00;;
85065;SDS011;75401;52.588;13.224;2024-01-15T12:59:29;0.00;;;0.00;;
85065;SDS011;75401;52.588;13.224;2024-01-15T13:01:54;0.10;;;0.00;;
85065;SDS011;75401;52.588;13.224;2024-01-15T13:04:22;0.05;;;0.00;;
85065;SDS011;75401;52.588;13.224;2024-01-15T13:06:50;0.10;;;0.00;;
85065;SDS011;75401;52.588;13.224;2024-01-15T13:09:15;0.00;;;0.00;;
85065;SDS011;75401;52.588;13.224;2024-01-15T13:11:41;0.00;;;0.00;;
85065;SDS011;75401;52.588;13.224;2024-01-15T13:14:06;0.00;;;0.00;;
85065;SDS011;75401;52.588;13.224;2024-01-15T13:16:32;0.15;;;0.00;;
85065;SDS011;75401;52.588;13.224;2024-01-15T13:18:57;0.00;;;0.00;;
85065;SDS011;75401;52.588;13.224;2024-01-15T13:21:22;0.37;;;0.10;;
85065;SDS011;75401;52.588;13.224;2024-01-15T13:23:49;0.00;;;0.00;;
85065;SDS011;75401;52.588;13.224;2024-01-15T13:26:14;0.00;;;0.00;;
85065;SDS011;75401;52.588;13.224;2024-01-15T13:28:40;0.20;;;0.00;;
85065;SDS011;75401;52.588;13.224;2024-01-15T13:31:05;0.00;;;0.00;;
85065;SDS011;75401;52.588;13.224;2024-01-15T13:33:30;0.20;;;0.08;;
85065;SDS011;75401;52.588;13.224;2024-01-15T13:35:56;0.10;;;0.10;;
85065;SDS011;75401;52.588;13.224;2024-01-15T13:38:21;0.10;;;0.00;;
85065;SDS011;75401;52.588;13.224;2024-01-15T13:40:48;0.00;;;0.00;;
85065;SDS011;75401;52.588;13.224;2024-01-15T13:43:13;0.28;;;0.05;;
85065;SDS011;75401;52.588;13.224;2024-01-15T13:45:39;0.37;;;0.10;;
85065;SDS011;75401;52.588;13.224;2024-01-15T13:48:04;0.00;;;0.00;;
85065;SDS011;75401;52.588;13.224;2024-01-15T13:50:30;0.10;;;0.00;;
85065;SDS011;75401;52.588;13.224;2024-01-15T13:52:56;0.17;;;0.10;;
85065;SDS011;75401;52.588;13.224;2024-01-15T13:55:21;0.10;;;0.00;;
85065;SDS011;75401;52.588;13.224;2024-01-15T13:57:48;0.00;;;0.00;;
85065;SDS011;75401;52.588;13.224;2024-01-15T14:00:14;0.40;;;0.20;;
85065;SDS011;75401;52.588;13.224;2024-01-15T14:02:40;0.10;;;0.00;;
85065;SDS011;75401;52.588;13.224;2024-01-15T14:05:05;0.17;;;0.10;;
85065;SDS011;75401;52.588;13.224;2024-01-15T14:07:31;0.10;;;0.00;;
85065;SDS011;75401;52.588;13.224;2024-01-15T14:09:56;0.10;;;0.10;;
85065;SDS011;75401;52.588;13.224;2024-01-15T14:12:21;0.00;;;0.00;;
85065;SDS011;75401;52.588;13.224;2024-01-15T14:14:48;0.17;;;0.07;;
85065;SDS011;75401;52.588;13.224;2024-01-15T14:17:13;0.13;;;0.10;;
85065;SDS011;75401;52.588;13.224;2024-01-15T14:19:38;0.13;;;0.10;;
85065;SDS011;75401;52.588;13.224;2024-01-15T14:22:04;0.40;;;0.10;;
85065;SDS011;75401;52.588;13.224;2024-01-15T14:24:29;0.22;;;0.10;;
85065;SDS011;75401;52.588;13.224;2024-01-15T14:26:54;0.20;;;0.10;;
85065;SDS011;75401;52.588;13.224;2024-01-15T14:29:20;0.20;;;0.10;;
85065;SDS011;75401;52.588;13.224;2024-01-15T14:31:46;0.10;;;0.10;;
85065;SDS011;75401;52.588;13.224;2024-01-15T14:34:12;0.30;;;0.10;;